Aviation Digital Data Service (ADDS)

Output produced by METARs form (0306 UTC 16 August 2018)
found at http://www.aviationweather.gov/adds/metars/
 
EVLA 160250Z AUTO 00000KT 2100 FG FEW018/// 13/13 Q1017
TAF EVLA 160203Z 1603/1703 23005KT 9999 SCT030 
     TEMPO 1603/1604 0700 FG BKN002 
     BECMG 1617/1619 VRB02KT 
     TEMPO 1700/1703 0700 FG BKN002
       
EVRA 160250Z 26003KT 230V290 9999 FEW048 16/15 Q1016 NOSIG
TAF EVRA 160200Z 1603/1703 30005KT 9999 SCT030 
     TEMPO 1603/1604 3000 BR BKN002 
     BECMG 1618/1620 16005KT
       
EVVA 160250Z AUTO 00000KT 9999 BKN015 BKN021 BKN042 16/16 Q1016